createdAt,value
2022-08-29T00:04:53.519Z,22.40
2022-08-29T00:09:57.136Z,22.30
2022-08-29T00:15:00.158Z,22.20
2022-08-29T00:20:07.536Z,22.00
2022-08-29T00:25:11.826Z,21.90
2022-08-29T00:30:16.125Z,21.80
2022-08-29T00:35:27.764Z,21.70
2022-08-29T00:40:44.956Z,21.60
2022-08-29T00:46:41.490Z,21.60
2022-08-29T00:51:46.726Z,21.50
2022-08-29T00:56:51.054Z,21.50
2022-08-29T01:01:54.194Z,21.40
2022-08-29T01:06:58.109Z,21.40
2022-08-29T01:12:16.235Z,21.40
2022-08-29T01:17:31.182Z,21.30
2022-08-29T01:22:56.630Z,21.30
2022-08-29T01:28:26.242Z,21.30
2022-08-29T01:33:38.772Z,21.30
2022-08-29T01:38:42.226Z,21.30
2022-08-29T01:43:49.861Z,21.20
2022-08-29T01:48:53.180Z,21.20
2022-08-29T01:53:56.458Z,21.10
2022-08-29T01:59:02.513Z,21.10
2022-08-29T02:04:07.860Z,21.00
2022-08-29T02:09:11.320Z,21.00
2022-08-29T02:14:19.578Z,20.90
2022-08-29T02:19:23.569Z,20.80
2022-08-29T02:24:26.611Z,20.70
2022-08-29T02:29:37.393Z,20.60
2022-08-29T02:34:44.732Z,20.60
2022-08-29T02:39:50.589Z,20.50
2022-08-29T02:44:53.458Z,20.50
2022-08-29T02:49:56.306Z,20.40
2022-08-29T02:54:59.211Z,20.30
2022-08-29T03:00:03.049Z,20.20
2022-08-29T03:05:07.258Z,20.20
2022-08-29T03:10:11.492Z,20.20
2022-08-29T03:15:14.961Z,20.20
2022-08-29T03:20:20.895Z,20.10
2022-08-29T03:25:24.528Z,20.10
2022-08-29T03:30:30.772Z,20.10
2022-08-29T03:35:33.805Z,20.10
2022-08-29T03:40:37.189Z,20.10
2022-08-29T03:45:40.221Z,20.00
2022-08-29T03:50:43.643Z,20.00
2022-08-29T03:55:46.583Z,20.10
2022-08-29T04:00:49.739Z,20.10
2022-08-29T04:05:55.216Z,20.20
2022-08-29T04:10:58.786Z,20.30
2022-08-29T04:16:01.723Z,20.30
2022-08-29T04:21:06.600Z,20.30
2022-08-29T04:26:35.870Z,20.20
2022-08-29T04:31:41.408Z,20.20
2022-08-29T04:36:47.776Z,20.20
2022-08-29T04:41:50.711Z,20.30
2022-08-29T04:46:53.541Z,20.30
2022-08-29T04:51:56.410Z,20.30
2022-08-29T04:57:03.616Z,20.40
2022-08-29T05:02:08.683Z,20.40
2022-08-29T05:07:12.589Z,20.40
2022-08-29T05:12:15.910Z,20.40
2022-08-29T05:17:19.183Z,20.40
2022-08-29T05:22:23.034Z,20.50
2022-08-29T05:27:26.010Z,20.50
2022-08-29T05:32:28.920Z,20.60
2022-08-29T05:37:31.925Z,20.70
2022-08-29T05:42:34.883Z,20.70
2022-08-29T05:47:37.655Z,20.80
2022-08-29T05:52:41.714Z,20.90
2022-08-29T05:57:44.558Z,21.10
2022-08-29T06:02:47.591Z,21.20
2022-08-29T06:07:54.356Z,21.40
2022-08-29T06:12:57.531Z,21.50
2022-08-29T06:18:00.438Z,21.60
2022-08-29T06:23:03.182Z,21.80
2022-08-29T06:28:06.015Z,21.90
2022-08-29T06:33:10.171Z,22.10
2022-08-29T06:38:14.198Z,22.20
2022-08-29T06:43:17.117Z,22.40
2022-08-29T06:48:19.990Z,22.40
2022-08-29T06:53:28.408Z,22.40
2022-08-29T06:58:35.638Z,22.40
2022-08-29T07:03:38.871Z,22.40
2022-08-29T07:08:55.241Z,22.40
2022-08-29T07:14:02.348Z,22.40
2022-08-29T07:19:08.213Z,22.50
2022-08-29T07:24:10.985Z,22.60
2022-08-29T07:29:20.397Z,22.80
2022-08-29T07:34:23.367Z,23.10
2022-08-29T07:39:26.281Z,23.40
2022-08-29T07:44:30.318Z,23.60
2022-08-29T07:49:41.570Z,24.00
2022-08-29T07:54:45.118Z,24.50
2022-08-29T07:59:47.946Z,25.10
2022-08-29T08:04:52.403Z,25.60
2022-08-29T08:09:56.293Z,25.90
2022-08-29T08:14:59.178Z,26.20
2022-08-29T08:20:07.134Z,26.40
2022-08-29T08:25:10.212Z,26.60
2022-08-29T08:30:13.875Z,26.90
2022-08-29T08:35:19.865Z,27.10
2022-08-29T08:40:28.227Z,26.90
2022-08-29T08:45:40.002Z,26.80
2022-08-29T08:51:03.835Z,26.80
2022-08-29T08:56:38.819Z,26.90
2022-08-29T09:01:48.398Z,27.00
2022-08-29T09:07:39.525Z,27.00
2022-08-29T09:13:18.871Z,27.10
2022-08-29T09:18:35.165Z,27.20
2022-08-29T09:24:02.237Z,27.30
2022-08-29T09:29:09.920Z,27.40
2022-08-29T09:34:57.405Z,27.30
2022-08-29T09:40:11.535Z,27.10
2022-08-29T09:45:25.030Z,27.10
2022-08-29T09:50:28.294Z,27.10
2022-08-29T09:55:45.395Z,27.20
2022-08-29T10:01:06.684Z,27.50
2022-08-29T10:06:17.284Z,27.70
2022-08-29T10:11:36.429Z,27.80
2022-08-29T10:17:19.584Z,27.90
2022-08-29T10:22:57.873Z,28.00
2022-08-29T10:28:15.758Z,28.20
2022-08-29T10:33:45.142Z,28.50
2022-08-29T10:39:06.509Z,28.60
2022-08-29T10:44:34.975Z,28.90
2022-08-29T10:50:02.601Z,29.10
2022-08-29T10:55:53.915Z,29.20
2022-08-29T11:01:35.983Z,29.10
2022-08-29T11:07:09.882Z,29.10
2022-08-29T11:13:00.435Z,29.30
2022-08-29T11:18:38.319Z,29.70
2022-08-29T11:23:46.687Z,29.90
2022-08-29T11:29:20.506Z,30.00
2022-08-29T11:34:35.176Z,30.10
2022-08-29T11:39:58.713Z,30.20
2022-08-29T11:45:04.028Z,30.40
2022-08-29T11:50:35.361Z,30.50
2022-08-29T11:55:44.904Z,30.70
2022-08-29T12:00:54.545Z,30.80
2022-08-29T12:06:02.598Z,31.00
2022-08-29T12:11:07.907Z,30.90
2022-08-29T12:16:19.006Z,31.30
2022-08-29T12:21:36.945Z,31.50
2022-08-29T12:26:45.022Z,31.60
2022-08-29T12:32:22.750Z,31.80
2022-08-29T12:37:39.782Z,32.00
2022-08-29T12:42:53.560Z,32.10
2022-08-29T12:48:11.778Z,32.00
2022-08-29T12:53:26.024Z,31.70
2022-08-29T12:58:53.798Z,31.30
2022-08-29T13:04:19.519Z,31.10
2022-08-29T13:09:38.781Z,30.60
2022-08-29T13:15:00.444Z,30.30
2022-08-29T13:20:46.362Z,30.10
2022-08-29T13:26:10.938Z,30.10
2022-08-29T13:31:16.881Z,29.80
2022-08-29T13:36:49.464Z,29.70
2022-08-29T13:42:01.264Z,29.80
2022-08-29T13:47:25.152Z,30.00
2022-08-29T13:52:29.415Z,30.20
2022-08-29T13:57:36.017Z,30.20
2022-08-29T14:02:44.663Z,30.30
2022-08-29T14:07:47.829Z,30.20
2022-08-29T14:12:50.841Z,30.20
2022-08-29T14:17:54.560Z,30.30
2022-08-29T14:22:57.660Z,30.40
2022-08-29T14:28:00.673Z,30.60
2022-08-29T14:33:03.559Z,30.60
2022-08-29T14:38:11.610Z,30.70
2022-08-29T14:43:14.562Z,30.90
2022-08-29T14:48:18.378Z,30.90
2022-08-29T14:53:21.540Z,30.70
2022-08-29T14:58:24.913Z,30.70
2022-08-29T15:03:27.732Z,30.80
2022-08-29T15:08:31.091Z,30.60
2022-08-29T15:13:34.061Z,30.60
2022-08-29T15:19:33.686Z,30.70
2022-08-29T15:24:00.570Z,30.40
2022-08-29T15:29:04.635Z,30.00
2022-08-29T15:34:07.452Z,30.00
2022-08-29T15:39:10.583Z,29.80
2022-08-29T15:44:13.768Z,29.30
2022-08-29T15:49:20.968Z,29.00
2022-08-29T15:54:26.037Z,29.30
2022-08-29T15:59:54.187Z,29.40
2022-08-29T16:04:56.025Z,29.60
2022-08-29T16:10:05.879Z,29.80
2022-08-29T16:15:14.560Z,29.80
2022-08-29T16:20:18.900Z,29.50
2022-08-29T16:25:23.229Z,29.00
2022-08-29T16:30:26.248Z,28.40
2022-08-29T16:35:29.161Z,28.10
2022-08-29T16:40:32.985Z,27.90
2022-08-29T16:45:38.189Z,27.70
2022-08-29T16:50:41.100Z,27.50
2022-08-29T16:55:43.953Z,27.30
2022-08-29T17:00:46.799Z,27.00
2022-08-29T17:05:49.923Z,26.80
2022-08-29T17:10:52.995Z,26.60
2022-08-29T17:15:56.151Z,26.30
2022-08-29T17:21:00.120Z,26.20
2022-08-29T17:26:08.519Z,26.20
2022-08-29T17:31:12.174Z,26.10
2022-08-29T17:36:16.279Z,26.10
2022-08-29T17:41:22.301Z,26.00
2022-08-29T17:46:25.824Z,25.90
2022-08-29T17:51:28.872Z,25.80
2022-08-29T17:56:52.508Z,25.70
2022-08-29T18:01:56.967Z,25.50
2022-08-29T18:06:59.811Z,25.40
2022-08-29T18:12:02.715Z,25.20
2022-08-29T18:17:06.264Z,25.20
2022-08-29T18:22:09.916Z,25.00
2022-08-29T18:27:12.873Z,24.90
2022-08-29T18:32:15.712Z,24.80
2022-08-29T18:37:18.541Z,24.70
2022-08-29T18:42:39.574Z,24.60
2022-08-29T18:47:43.780Z,24.60
2022-08-29T18:52:46.587Z,24.50
2022-08-29T18:57:52.564Z,24.30
2022-08-29T19:02:58.010Z,24.30
2022-08-29T19:08:01.979Z,24.20
2022-08-29T19:13:08.208Z,24.20
2022-08-29T19:18:11.713Z,24.20
2022-08-29T19:23:16.787Z,24.10
2022-08-29T19:28:20.768Z,24.00
2022-08-29T19:33:23.998Z,24.00
2022-08-29T19:38:27.647Z,24.00
2022-08-29T19:43:33.780Z,23.90
2022-08-29T19:48:36.753Z,24.00
2022-08-29T19:53:41.733Z,24.10
2022-08-29T19:58:44.594Z,24.10
2022-08-29T20:03:47.467Z,24.10
2022-08-29T20:08:50.403Z,24.10
2022-08-29T20:13:57.426Z,24.10
2022-08-29T20:19:01.932Z,24.10
2022-08-29T20:24:06.705Z,24.00
2022-08-29T20:29:12.047Z,23.90
2022-08-29T20:34:15.298Z,23.80
2022-08-29T20:39:21.030Z,23.70
2022-08-29T20:44:31.652Z,23.70
2022-08-29T20:49:37.416Z,23.60
2022-08-29T20:54:40.550Z,23.50
2022-08-29T20:59:49.587Z,23.40
2022-08-29T21:05:10.640Z,23.30
2022-08-29T21:10:13.630Z,23.20
2022-08-29T21:15:16.565Z,23.20
2022-08-29T21:20:19.462Z,23.10
2022-08-29T21:25:22.417Z,23.00
2022-08-29T21:30:25.252Z,23.00
2022-08-29T21:35:29.069Z,22.80
2022-08-29T21:40:32.036Z,22.70
2022-08-29T21:45:35.235Z,22.70
2022-08-29T21:50:38.518Z,22.70
2022-08-29T21:56:06.861Z,22.70
2022-08-29T22:01:11.344Z,22.60
2022-08-29T22:06:15.308Z,22.60
2022-08-29T22:11:25.523Z,22.50
2022-08-29T22:16:40.455Z,22.50
2022-08-29T22:21:48.856Z,22.40
2022-08-29T22:26:52.382Z,22.30
2022-08-29T22:31:56.294Z,22.30
2022-08-29T22:36:59.118Z,22.20
2022-08-29T22:42:02.625Z,22.10
2022-08-29T22:47:05.920Z,22.10
2022-08-29T22:52:09.412Z,22.10
2022-08-29T22:57:19.078Z,22.10
2022-08-29T23:02:22.023Z,22.00
2022-08-29T23:07:25.317Z,21.90
2022-08-29T23:12:28.724Z,22.00
2022-08-29T23:17:31.625Z,21.90
2022-08-29T23:22:34.675Z,21.90
2022-08-29T23:27:39.160Z,21.80
2022-08-29T23:32:42.324Z,21.80
2022-08-29T23:37:45.204Z,21.80
2022-08-29T23:42:48.858Z,21.80
2022-08-29T23:47:51.710Z,21.70
2022-08-29T23:52:54.528Z,21.70
2022-08-29T23:57:57.603Z,21.60
